sensor_id;sensor_type;location;lat;lon;timestamp;temperature;humidity
6377;DHT22;3221;48.858;10.128;2022-07-06T00:00:05;16.90;93.60
6377;DHT22;3221;48.858;10.128;2022-07-06T00:02:32;16.80;93.40
6377;DHT22;3221;48.858;10.128;2022-07-06T00:04:59;16.80;94.00
6377;DHT22;3221;48.858;10.128;2022-07-06T00:07:26;16.80;94.20
6377;DHT22;3221;48.858;10.128;2022-07-06T00:09:53;16.70;93.60
6377;DHT22;3221;48.858;10.128;2022-07-06T00:12:20;16.60;93.90
6377;DHT22;3221;48.858;10.128;2022-07-06T00:14:47;16.60;93.70
6377;DHT22;3221;48.858;10.128;2022-07-06T00:17:14;16.60;93.90
6377;DHT22;3221;48.858;10.128;2022-07-06T00:19:41;16.60;93.80
6377;DHT22;3221;48.858;10.128;2022-07-06T00:22:08;16.60;93.70
6377;DHT22;3221;48.858;10.128;2022-07-06T00:24:34;16.70;94.30
6377;DHT22;3221;48.858;10.128;2022-07-06T00:27:01;16.70;94.00
6377;DHT22;3221;48.858;10.128;2022-07-06T00:29:28;16.60;93.80
6377;DHT22;3221;48.858;10.128;2022-07-06T00:31:57;16.60;94.10
6377;DHT22;3221;48.858;10.128;2022-07-06T00:34:24;16.50;93.70
6377;DHT22;3221;48.858;10.128;2022-07-06T00:36:51;16.50;93.70
6377;DHT22;3221;48.858;10.128;2022-07-06T00:39:18;16.50;94.10
6377;DHT22;3221;48.858;10.128;2022-07-06T00:41:46;16.40;94.10
6377;DHT22;3221;48.858;10.128;2022-07-06T00:44:12;16.40;94.10
6377;DHT22;3221;48.858;10.128;2022-07-06T00:46:39;16.40;93.90
6377;DHT22;3221;48.858;10.128;2022-07-06T00:49:06;16.30;93.60
6377;DHT22;3221;48.858;10.128;2022-07-06T00:51:53;16.20;94.00
6377;DHT22;3221;48.858;10.128;2022-07-06T00:54:21;16.20;93.80
6377;DHT22;3221;48.858;10.128;2022-07-06T00:56:48;16.20;93.80
6377;DHT22;3221;48.858;10.128;2022-07-06T00:59:15;16.20;93.80
6377;DHT22;3221;48.858;10.128;2022-07-06T01:01:41;16.20;94.10
6377;DHT22;3221;48.858;10.128;2022-07-06T01:04:08;16.10;93.80
6377;DHT22;3221;48.858;10.128;2022-07-06T01:06:36;16.10;93.90
6377;DHT22;3221;48.858;10.128;2022-07-06T01:09:04;16.00;93.90
6377;DHT22;3221;48.858;10.128;2022-07-06T01:11:32;16.00;94.00
6377;DHT22;3221;48.858;10.128;2022-07-06T01:14:00;16.00;94.00
6377;DHT22;3221;48.858;10.128;2022-07-06T01:16:28;16.00;94.10
6377;DHT22;3221;48.858;10.128;2022-07-06T01:18:55;16.00;94.20
6377;DHT22;3221;48.858;10.128;2022-07-06T01:21:22;15.90;94.00
6377;DHT22;3221;48.858;10.128;2022-07-06T01:23:49;15.90;94.10
6377;DHT22;3221;48.858;10.128;2022-07-06T01:26:20;15.90;94.30
6377;DHT22;3221;48.858;10.128;2022-07-06T01:28:49;15.80;94.00
6377;DHT22;3221;48.858;10.128;2022-07-06T01:31:25;15.70;94.10
6377;DHT22;3221;48.858;10.128;2022-07-06T01:33:56;15.70;94.30
6377;DHT22;3221;48.858;10.128;2022-07-06T01:36:25;15.60;94.50
6377;DHT22;3221;48.858;10.128;2022-07-06T01:38:54;15.60;94.40
6377;DHT22;3221;48.858;10.128;2022-07-06T01:41:21;15.60;94.40
6377;DHT22;3221;48.858;10.128;2022-07-06T01:43:48;15.60;94.60
6377;DHT22;3221;48.858;10.128;2022-07-06T01:46:16;15.60;94.80
6377;DHT22;3221;48.858;10.128;2022-07-06T01:48:43;15.60;94.60
6377;DHT22;3221;48.858;10.128;2022-07-06T01:51:10;15.60;94.90
6377;DHT22;3221;48.858;10.128;2022-07-06T01:53:39;15.60;94.80
6377;DHT22;3221;48.858;10.128;2022-07-06T01:56:08;15.60;94.70
6377;DHT22;3221;48.858;10.128;2022-07-06T01:58:35;15.60;94.70
6377;DHT22;3221;48.858;10.128;2022-07-06T02:01:10;15.50;94.70
6377;DHT22;3221;48.858;10.128;2022-07-06T02:03:39;15.50;94.90
6377;DHT22;3221;48.858;10.128;2022-07-06T02:06:06;15.50;94.90
6377;DHT22;3221;48.858;10.128;2022-07-06T02:08:33;15.50;94.90
6377;DHT22;3221;48.858;10.128;2022-07-06T02:11:02;15.40;94.80
6377;DHT22;3221;48.858;10.128;2022-07-06T02:13:31;15.40;94.80
6377;DHT22;3221;48.858;10.128;2022-07-06T02:16:00;15.40;95.00
6377;DHT22;3221;48.858;10.128;2022-07-06T02:18:27;15.40;94.90
6377;DHT22;3221;48.858;10.128;2022-07-06T02:20:56;15.40;95.30
6377;DHT22;3221;48.858;10.128;2022-07-06T02:23:23;15.30;94.90
6377;DHT22;3221;48.858;10.128;2022-07-06T02:25:51;15.30;95.00
6377;DHT22;3221;48.858;10.128;2022-07-06T02:28:19;15.20;95.10
6377;DHT22;3221;48.858;10.128;2022-07-06T02:30:47;15.20;95.00
6377;DHT22;3221;48.858;10.128;2022-07-06T02:33:14;15.20;95.10
6377;DHT22;3221;48.858;10.128;2022-07-06T02:35:41;15.10;95.50
6377;DHT22;3221;48.858;10.128;2022-07-06T02:38:12;15.10;95.20
6377;DHT22;3221;48.858;10.128;2022-07-06T02:40:39;15.10;95.20
6377;DHT22;3221;48.858;10.128;2022-07-06T02:43:06;15.00;95.20
6377;DHT22;3221;48.858;10.128;2022-07-06T02:45:35;15.00;95.30
6377;DHT22;3221;48.858;10.128;2022-07-06T02:48:03;15.00;95.30
6377;DHT22;3221;48.858;10.128;2022-07-06T02:50:31;15.00;95.30
6377;DHT22;3221;48.858;10.128;2022-07-06T02:52:58;15.00;95.40
6377;DHT22;3221;48.858;10.128;2022-07-06T02:55:30;14.90;95.40
6377;DHT22;3221;48.858;10.128;2022-07-06T02:57:57;14.90;95.60
6377;DHT22;3221;48.858;10.128;2022-07-06T03:00:24;14.90;95.50
6377;DHT22;3221;48.858;10.128;2022-07-06T03:02:52;14.90;95.60
6377;DHT22;3221;48.858;10.128;2022-07-06T03:05:20;14.80;95.60
6377;DHT22;3221;48.858;10.128;2022-07-06T03:07:47;14.80;95.70
6377;DHT22;3221;48.858;10.128;2022-07-06T03:10:15;14.70;95.70
6377;DHT22;3221;48.858;10.128;2022-07-06T03:12:42;14.60;95.80
6377;DHT22;3221;48.858;10.128;2022-07-06T03:15:09;14.70;95.90
6377;DHT22;3221;48.858;10.128;2022-07-06T03:17:39;14.70;96.00
6377;DHT22;3221;48.858;10.128;2022-07-06T03:20:07;14.70;96.00
6377;DHT22;3221;48.858;10.128;2022-07-06T03:22:34;14.60;96.00
6377;DHT22;3221;48.858;10.128;2022-07-06T03:25:03;14.70;96.00
6377;DHT22;3221;48.858;10.128;2022-07-06T03:27:30;14.70;96.20
6377;DHT22;3221;48.858;10.128;2022-07-06T03:29:58;14.60;96.10
6377;DHT22;3221;48.858;10.128;2022-07-06T03:32:25;14.60;96.10
6377;DHT22;3221;48.858;10.128;2022-07-06T03:34:53;14.60;96.00
6377;DHT22;3221;48.858;10.128;2022-07-06T03:37:21;14.60;96.10
6377;DHT22;3221;48.858;10.128;2022-07-06T03:39:48;14.60;96.10
6377;DHT22;3221;48.858;10.128;2022-07-06T03:42:15;14.60;96.10
6377;DHT22;3221;48.858;10.128;2022-07-06T03:44:42;14.60;96.10
6377;DHT22;3221;48.858;10.128;2022-07-06T03:47:09;14.60;96.20
6377;DHT22;3221;48.858;10.128;2022-07-06T03:49:36;14.50;96.20
6377;DHT22;3221;48.858;10.128;2022-07-06T03:52:05;14.50;96.30
6377;DHT22;3221;48.858;10.128;2022-07-06T03:54:40;14.40;96.30
6377;DHT22;3221;48.858;10.128;2022-07-06T03:57:07;14.40;96.40
6377;DHT22;3221;48.858;10.128;2022-07-06T03:59:35;14.40;96.50
6377;DHT22;3221;48.858;10.128;2022-07-06T04:02:02;14.40;96.60
6377;DHT22;3221;48.858;10.128;2022-07-06T04:04:31;14.40;96.60
6377;DHT22;3221;48.858;10.128;2022-07-06T04:06:58;14.40;96.60
6377;DHT22;3221;48.858;10.128;2022-07-06T04:09:26;14.40;96.70
6377;DHT22;3221;48.858;10.128;2022-07-06T04:11:53;14.40;96.80
6377;DHT22;3221;48.858;10.128;2022-07-06T04:14:20;14.40;96.80
6377;DHT22;3221;48.858;10.128;2022-07-06T04:16:47;14.40;96.80
6377;DHT22;3221;48.858;10.128;2022-07-06T04:19:14;14.40;96.90
6377;DHT22;3221;48.858;10.128;2022-07-06T04:21:42;14.40;96.90
6377;DHT22;3221;48.858;10.128;2022-07-06T04:24:09;14.40;96.90
6377;DHT22;3221;48.858;10.128;2022-07-06T04:26:37;14.30;97.10
6377;DHT22;3221;48.858;10.128;2022-07-06T04:29:04;14.30;97.10
6377;DHT22;3221;48.858;10.128;2022-07-06T04:31:31;14.30;97.50
6377;DHT22;3221;48.858;10.128;2022-07-06T04:33:58;14.30;97.20
6377;DHT22;3221;48.858;10.128;2022-07-06T04:36:26;14.40;97.40
6377;DHT22;3221;48.858;10.128;2022-07-06T04:38:54;14.40;97.30
6377;DHT22;3221;48.858;10.128;2022-07-06T04:41:24;14.40;97.30
6377;DHT22;3221;48.858;10.128;2022-07-06T04:43:53;14.40;98.00
6377;DHT22;3221;48.858;10.128;2022-07-06T04:46:21;14.40;97.40
6377;DHT22;3221;48.858;10.128;2022-07-06T04:48:51;14.40;97.50
6377;DHT22;3221;48.858;10.128;2022-07-06T04:51:23;14.40;97.50
6377;DHT22;3221;48.858;10.128;2022-07-06T04:53:50;14.40;97.70
6377;DHT22;3221;48.858;10.128;2022-07-06T04:56:18;14.40;98.10
6377;DHT22;3221;48.858;10.128;2022-07-06T04:58:45;14.50;98.20
6377;DHT22;3221;48.858;10.128;2022-07-06T05:01:15;14.50;97.90
6377;DHT22;3221;48.858;10.128;2022-07-06T05:03:42;14.50;98.30
6377;DHT22;3221;48.858;10.128;2022-07-06T05:06:11;14.50;98.40
6377;DHT22;3221;48.858;10.128;2022-07-06T05:08:39;14.50;98.30
6377;DHT22;3221;48.858;10.128;2022-07-06T05:11:06;14.50;98.40
6377;DHT22;3221;48.858;10.128;2022-07-06T05:13:33;14.60;98.50
6377;DHT22;3221;48.858;10.128;2022-07-06T05:16:01;14.60;98.20
6377;DHT22;3221;48.858;10.128;2022-07-06T05:18:28;14.70;98.30
6377;DHT22;3221;48.858;10.128;2022-07-06T05:20:56;14.70;98.50
6377;DHT22;3221;48.858;10.128;2022-07-06T05:23:23;14.70;98.40
6377;DHT22;3221;48.858;10.128;2022-07-06T05:25:50;14.70;98.30
6377;DHT22;3221;48.858;10.128;2022-07-06T05:28:17;14.70;98.60
6377;DHT22;3221;48.858;10.128;2022-07-06T05:30:44;14.80;98.50
6377;DHT22;3221;48.858;10.128;2022-07-06T05:33:12;14.80;98.50
6377;DHT22;3221;48.858;10.128;2022-07-06T05:35:39;14.80;98.50
6377;DHT22;3221;48.858;10.128;2022-07-06T05:38:20;15.00;98.60
6377;DHT22;3221;48.858;10.128;2022-07-06T05:40:48;14.90;98.50
6377;DHT22;3221;48.858;10.128;2022-07-06T05:43:16;15.00;98.50
6377;DHT22;3221;48.858;10.128;2022-07-06T05:45:43;15.10;98.70
6377;DHT22;3221;48.858;10.128;2022-07-06T05:48:10;15.10;98.50
6377;DHT22;3221;48.858;10.128;2022-07-06T05:50:56;15.10;98.30
6377;DHT22;3221;48.858;10.128;2022-07-06T05:53:24;15.10;98.60
6377;DHT22;3221;48.858;10.128;2022-07-06T05:55:53;15.20;98.40
6377;DHT22;3221;48.858;10.128;2022-07-06T05:58:21;15.30;98.60
6377;DHT22;3221;48.858;10.128;2022-07-06T06:00:48;15.30;98.40
6377;DHT22;3221;48.858;10.128;2022-07-06T06:03:18;15.20;98.20
6377;DHT22;3221;48.858;10.128;2022-07-06T06:05:47;15.30;98.30
6377;DHT22;3221;48.858;10.128;2022-07-06T06:08:17;15.30;98.50
6377;DHT22;3221;48.858;10.128;2022-07-06T06:10:44;15.40;98.00
6377;DHT22;3221;48.858;10.128;2022-07-06T06:13:14;15.50;97.80
6377;DHT22;3221;48.858;10.128;2022-07-06T06:15:41;15.50;98.10
6377;DHT22;3221;48.858;10.128;2022-07-06T06:18:08;15.60;97.70
6377;DHT22;3221;48.858;10.128;2022-07-06T06:20:35;15.60;97.70
6377;DHT22;3221;48.858;10.128;2022-07-06T06:23:03;15.60;97.70
6377;DHT22;3221;48.858;10.128;2022-07-06T06:25:38;15.70;97.60
6377;DHT22;3221;48.858;10.128;2022-07-06T06:28:07;15.60;97.60
6377;DHT22;3221;48.858;10.128;2022-07-06T06:30:34;15.70;97.40
6377;DHT22;3221;48.858;10.128;2022-07-06T06:33:16;15.70;97.60
6377;DHT22;3221;48.858;10.128;2022-07-06T06:35:50;15.80;97.50
6377;DHT22;3221;48.858;10.128;2022-07-06T06:38:19;15.90;97.30
6377;DHT22;3221;48.858;10.128;2022-07-06T06:40:47;15.80;97.60
6377;DHT22;3221;48.858;10.128;2022-07-06T06:43:14;15.80;97.00
6377;DHT22;3221;48.858;10.128;2022-07-06T06:45:50;15.80;97.30
6377;DHT22;3221;48.858;10.128;2022-07-06T06:48:17;15.90;97.30
6377;DHT22;3221;48.858;10.128;2022-07-06T06:50:45;16.00;97.30
6377;DHT22;3221;48.858;10.128;2022-07-06T06:53:13;16.10;97.10
6377;DHT22;3221;48.858;10.128;2022-07-06T06:55:40;16.00;97.20
6377;DHT22;3221;48.858;10.128;2022-07-06T06:58:07;16.00;97.30
6377;DHT22;3221;48.858;10.128;2022-07-06T07:00:34;16.00;97.40
6377;DHT22;3221;48.858;10.128;2022-07-06T07:03:01;16.00;97.20
6377;DHT22;3221;48.858;10.128;2022-07-06T07:05:28;16.10;97.20
6377;DHT22;3221;48.858;10.128;2022-07-06T07:07:55;16.10;97.20
6377;DHT22;3221;48.858;10.128;2022-07-06T07:10:31;16.10;97.00
6377;DHT22;3221;48.858;10.128;2022-07-06T07:12:58;16.20;97.00
6377;DHT22;3221;48.858;10.128;2022-07-06T07:15:25;16.20;96.90
6377;DHT22;3221;48.858;10.128;2022-07-06T07:17:52;16.20;97.20
6377;DHT22;3221;48.858;10.128;2022-07-06T07:20:19;16.20;97.10
6377;DHT22;3221;48.858;10.128;2022-07-06T07:22:46;16.30;96.90
6377;DHT22;3221;48.858;10.128;2022-07-06T07:25:13;16.40;96.90
6377;DHT22;3221;48.858;10.128;2022-07-06T07:27:40;16.40;96.80
6377;DHT22;3221;48.858;10.128;2022-07-06T07:30:07;16.40;96.90
6377;DHT22;3221;48.858;10.128;2022-07-06T07:32:35;16.40;97.20
6377;DHT22;3221;48.858;10.128;2022-07-06T07:35:02;16.40;97.20
6377;DHT22;3221;48.858;10.128;2022-07-06T07:37:29;16.50;97.20
6377;DHT22;3221;48.858;10.128;2022-07-06T07:39:56;16.50;96.90
6377;DHT22;3221;48.858;10.128;2022-07-06T07:42:23;16.50;97.10
6377;DHT22;3221;48.858;10.128;2022-07-06T07:44:50;16.50;97.40
6377;DHT22;3221;48.858;10.128;2022-07-06T07:47:17;16.40;97.40
6377;DHT22;3221;48.858;10.128;2022-07-06T07:49:44;16.50;97.10
6377;DHT22;3221;48.858;10.128;2022-07-06T07:52:11;16.60;97.10
6377;DHT22;3221;48.858;10.128;2022-07-06T07:54:38;16.60;97.40
6377;DHT22;3221;48.858;10.128;2022-07-06T07:57:12;16.60;97.10
6377;DHT22;3221;48.858;10.128;2022-07-06T07:59:39;16.80;97.40
6377;DHT22;3221;48.858;10.128;2022-07-06T08:02:06;16.80;97.20
6377;DHT22;3221;48.858;10.128;2022-07-06T08:04:34;16.90;97.30
6377;DHT22;3221;48.858;10.128;2022-07-06T08:07:02;16.90;97.50
6377;DHT22;3221;48.858;10.128;2022-07-06T08:09:28;17.00;97.20
6377;DHT22;3221;48.858;10.128;2022-07-06T08:11:55;17.10;97.20
6377;DHT22;3221;48.858;10.128;2022-07-06T08:14:23;17.10;97.10
6377;DHT22;3221;48.858;10.128;2022-07-06T08:16:50;17.20;97.10
6377;DHT22;3221;48.858;10.128;2022-07-06T08:19:17;17.10;97.10
6377;DHT22;3221;48.858;10.128;2022-07-06T08:21:44;17.20;97.20
6377;DHT22;3221;48.858;10.128;2022-07-06T08:24:11;17.20;97.10
6377;DHT22;3221;48.858;10.128;2022-07-06T08:26:38;17.20;97.50
6377;DHT22;3221;48.858;10.128;2022-07-06T08:29:05;17.10;97.30
6377;DHT22;3221;48.858;10.128;2022-07-06T08:31:32;17.30;97.30
6377;DHT22;3221;48.858;10.128;2022-07-06T08:34:21;17.40;97.20
6377;DHT22;3221;48.858;10.128;2022-07-06T08:36:48;17.60;97.30
6377;DHT22;3221;48.858;10.128;2022-07-06T08:39:15;17.50;97.10
6377;DHT22;3221;48.858;10.128;2022-07-06T08:41:43;17.50;97.40
6377;DHT22;3221;48.858;10.128;2022-07-06T08:44:15;17.60;97.40
6377;DHT22;3221;48.858;10.128;2022-07-06T08:46:43;17.60;97.10
6377;DHT22;3221;48.858;10.128;2022-07-06T08:49:16;17.70;97.50
6377;DHT22;3221;48.858;10.128;2022-07-06T08:51:45;17.70;97.20
6377;DHT22;3221;48.858;10.128;2022-07-06T08:54:12;17.70;97.30
6377;DHT22;3221;48.858;10.128;2022-07-06T08:56:40;17.80;97.10
6377;DHT22;3221;48.858;10.128;2022-07-06T08:59:15;17.70;96.90
6377;DHT22;3221;48.858;10.128;2022-07-06T09:01:43;17.80;96.70
6377;DHT22;3221;48.858;10.128;2022-07-06T09:04:12;17.80;96.80
6377;DHT22;3221;48.858;10.128;2022-07-06T09:06:43;17.90;96.90
6377;DHT22;3221;48.858;10.128;2022-07-06T09:09:19;18.00;96.50
6377;DHT22;3221;48.858;10.128;2022-07-06T09:11:47;18.00;96.40
6377;DHT22;3221;48.858;10.128;2022-07-06T09:14:14;18.20;96.70
6377;DHT22;3221;48.858;10.128;2022-07-06T09:16:42;18.10;96.50
6377;DHT22;3221;48.858;10.128;2022-07-06T09:19:12;18.20;96.70
6377;DHT22;3221;48.858;10.128;2022-07-06T09:21:40;18.20;96.60
6377;DHT22;3221;48.858;10.128;2022-07-06T09:24:11;18.20;96.60
6377;DHT22;3221;48.858;10.128;2022-07-06T09:26:39;18.20;96.70
6377;DHT22;3221;48.858;10.128;2022-07-06T09:29:08;18.10;96.80
6377;DHT22;3221;48.858;10.128;2022-07-06T09:31:35;18.20;96.60
6377;DHT22;3221;48.858;10.128;2022-07-06T09:34:04;18.40;96.70
6377;DHT22;3221;48.858;10.128;2022-07-06T09:36:46;18.50;96.10
6377;DHT22;3221;48.858;10.128;2022-07-06T09:39:27;18.50;96.30
6377;DHT22;3221;48.858;10.128;2022-07-06T09:41:56;18.50;96.20
6377;DHT22;3221;48.858;10.128;2022-07-06T09:44:31;18.70;96.50
6377;DHT22;3221;48.858;10.128;2022-07-06T09:47:01;18.70;96.30
6377;DHT22;3221;48.858;10.128;2022-07-06T09:49:28;18.90;96.00
6377;DHT22;3221;48.858;10.128;2022-07-06T09:52:00;18.90;96.20
6377;DHT22;3221;48.858;10.128;2022-07-06T09:54:27;19.00;95.70
6377;DHT22;3221;48.858;10.128;2022-07-06T09:56:56;18.90;95.60
6377;DHT22;3221;48.858;10.128;2022-07-06T09:59:27;18.80;95.60
6377;DHT22;3221;48.858;10.128;2022-07-06T10:01:55;18.90;95.60
6377;DHT22;3221;48.858;10.128;2022-07-06T10:04:25;18.80;95.80
6377;DHT22;3221;48.858;10.128;2022-07-06T10:06:54;18.90;95.30
6377;DHT22;3221;48.858;10.128;2022-07-06T10:09:23;19.00;95.10
6377;DHT22;3221;48.858;10.128;2022-07-06T10:11:53;19.00;95.30
6377;DHT22;3221;48.858;10.128;2022-07-06T10:14:22;19.10;95.20
6377;DHT22;3221;48.858;10.128;2022-07-06T10:16:50;19.20;95.00
6377;DHT22;3221;48.858;10.128;2022-07-06T10:19:19;19.20;95.00
6377;DHT22;3221;48.858;10.128;2022-07-06T10:21:48;19.20;95.10
6377;DHT22;3221;48.858;10.128;2022-07-06T10:24:15;19.30;95.30
6377;DHT22;3221;48.858;10.128;2022-07-06T10:26:42;19.40;95.10
6377;DHT22;3221;48.858;10.128;2022-07-06T10:29:09;19.30;95.20
6377;DHT22;3221;48.858;10.128;2022-07-06T10:31:39;19.40;95.00
6377;DHT22;3221;48.858;10.128;2022-07-06T10:34:11;19.40;95.10
6377;DHT22;3221;48.858;10.128;2022-07-06T10:36:40;19.50;95.40
6377;DHT22;3221;48.858;10.128;2022-07-06T10:39:09;19.40;95.00
6377;DHT22;3221;48.858;10.128;2022-07-06T10:41:54;19.40;94.90
6377;DHT22;3221;48.858;10.128;2022-07-06T10:44:27;19.50;95.00
6377;DHT22;3221;48.858;10.128;2022-07-06T10:46:56;19.60;95.10
6377;DHT22;3221;48.858;10.128;2022-07-06T10:49:25;19.60;95.10
6377;DHT22;3221;48.858;10.128;2022-07-06T10:52:16;19.60;95.20
6377;DHT22;3221;48.858;10.128;2022-07-06T10:54:43;19.50;95.20
6377;DHT22;3221;48.858;10.128;2022-07-06T10:57:11;19.50;95.10
6377;DHT22;3221;48.858;10.128;2022-07-06T11:00:03;19.50;95.10
6377;DHT22;3221;48.858;10.128;2022-07-06T11:02:38;19.50;95.00
6377;DHT22;3221;48.858;10.128;2022-07-06T11:05:11;19.40;94.80
6377;DHT22;3221;48.858;10.128;2022-07-06T11:07:49;19.40;95.10
6377;DHT22;3221;48.858;10.128;2022-07-06T11:10:17;19.30;95.10
6377;DHT22;3221;48.858;10.128;2022-07-06T11:12:47;19.50;95.50
6377;DHT22;3221;48.858;10.128;2022-07-06T11:15:46;19.60;95.10
6377;DHT22;3221;48.858;10.128;2022-07-06T11:18:19;19.70;94.20
6377;DHT22;3221;48.858;10.128;2022-07-06T11:21:15;19.90;94.40
6377;DHT22;3221;48.858;10.128;2022-07-06T11:23:42;19.90;94.40
6377;DHT22;3221;48.858;10.128;2022-07-06T11:26:10;20.10;94.30
6377;DHT22;3221;48.858;10.128;2022-07-06T11:28:38;20.10;94.00
6377;DHT22;3221;48.858;10.128;2022-07-06T11:31:05;20.00;94.10
6377;DHT22;3221;48.858;10.128;2022-07-06T11:33:32;19.90;94.50
6377;DHT22;3221;48.858;10.128;2022-07-06T11:36:16;19.80;94.60
6377;DHT22;3221;48.858;10.128;2022-07-06T11:38:43;19.80;94.80
6377;DHT22;3221;48.858;10.128;2022-07-06T11:41:11;20.00;94.90
6377;DHT22;3221;48.858;10.128;2022-07-06T11:43:44;20.10;94.70
6377;DHT22;3221;48.858;10.128;2022-07-06T11:46:26;20.10;94.50
6377;DHT22;3221;48.858;10.128;2022-07-06T11:49:14;20.10;94.20
6377;DHT22;3221;48.858;10.128;2022-07-06T11:51:44;20.10;94.60
6377;DHT22;3221;48.858;10.128;2022-07-06T11:54:16;20.00;94.60
6377;DHT22;3221;48.858;10.128;2022-07-06T11:59:15;20.00;94.90
6377;DHT22;3221;48.858;10.128;2022-07-06T12:01:42;20.00;94.80
6377;DHT22;3221;48.858;10.128;2022-07-06T12:04:11;20.10;94.60
6377;DHT22;3221;48.858;10.128;2022-07-06T12:06:38;20.10;95.10
6377;DHT22;3221;48.858;10.128;2022-07-06T12:09:10;20.20;94.90
6377;DHT22;3221;48.858;10.128;2022-07-06T12:11:37;20.20;94.70
6377;DHT22;3221;48.858;10.128;2022-07-06T12:14:14;20.20;94.60
6377;DHT22;3221;48.858;10.128;2022-07-06T12:16:42;20.20;94.70
6377;DHT22;3221;48.858;10.128;2022-07-06T12:19:09;20.30;94.40
6377;DHT22;3221;48.858;10.128;2022-07-06T12:21:48;20.40;94.10
6377;DHT22;3221;48.858;10.128;2022-07-06T12:24:23;20.40;94.40
6377;DHT22;3221;48.858;10.128;2022-07-06T12:26:52;20.40;94.50
6377;DHT22;3221;48.858;10.128;2022-07-06T12:29:19;20.30;94.90
6377;DHT22;3221;48.858;10.128;2022-07-06T12:31:53;20.40;94.80
6377;DHT22;3221;48.858;10.128;2022-07-06T12:34:27;20.30;94.50
6377;DHT22;3221;48.858;10.128;2022-07-06T12:36:56;20.20;94.30
6377;DHT22;3221;48.858;10.128;2022-07-06T12:39:30;20.30;94.40
6377;DHT22;3221;48.858;10.128;2022-07-06T12:42:02;20.20;94.40
6377;DHT22;3221;48.858;10.128;2022-07-06T12:44:30;20.20;94.30
6377;DHT22;3221;48.858;10.128;2022-07-06T12:47:05;20.30;94.30
6377;DHT22;3221;48.858;10.128;2022-07-06T12:49:33;20.40;94.40
6377;DHT22;3221;48.858;10.128;2022-07-06T12:52:01;20.40;94.30
6377;DHT22;3221;48.858;10.128;2022-07-06T12:57:21;20.30;94.30
6377;DHT22;3221;48.858;10.128;2022-07-06T13:02:29;20.20;94.00
6377;DHT22;3221;48.858;10.128;2022-07-06T13:05:16;20.30;94.30
6377;DHT22;3221;48.858;10.128;2022-07-06T13:07:47;20.20;93.60
6377;DHT22;3221;48.858;10.128;2022-07-06T13:10:16;20.40;93.70
6377;DHT22;3221;48.858;10.128;2022-07-06T13:12:43;20.40;93.90
6377;DHT22;3221;48.858;10.128;2022-07-06T13:15:10;20.40;94.00
6377;DHT22;3221;48.858;10.128;2022-07-06T13:17:38;20.50;94.10
6377;DHT22;3221;48.858;10.128;2022-07-06T13:20:07;20.50;94.30
6377;DHT22;3221;48.858;10.128;2022-07-06T13:22:35;20.50;94.10
6377;DHT22;3221;48.858;10.128;2022-07-06T13:25:02;20.60;94.80
6377;DHT22;3221;48.858;10.128;2022-07-06T13:27:30;20.70;94.10
6377;DHT22;3221;48.858;10.128;2022-07-06T13:29:57;20.70;93.90
6377;DHT22;3221;48.858;10.128;2022-07-06T13:32:24;20.80;93.30
6377;DHT22;3221;48.858;10.128;2022-07-06T13:34:51;20.90;93.30
6377;DHT22;3221;48.858;10.128;2022-07-06T13:37:19;21.00;93.00
6377;DHT22;3221;48.858;10.128;2022-07-06T13:39:47;21.00;92.60
6377;DHT22;3221;48.858;10.128;2022-07-06T13:42:14;21.00;92.30
6377;DHT22;3221;48.858;10.128;2022-07-06T13:44:41;21.00;92.50
6377;DHT22;3221;48.858;10.128;2022-07-06T13:47:08;20.90;92.90
6377;DHT22;3221;48.858;10.128;2022-07-06T13:49:35;20.90;93.50
6377;DHT22;3221;48.858;10.128;2022-07-06T13:52:02;21.00;93.30
6377;DHT22;3221;48.858;10.128;2022-07-06T13:54:31;21.00;93.10
6377;DHT22;3221;48.858;10.128;2022-07-06T13:57:02;21.20;93.00
6377;DHT22;3221;48.858;10.128;2022-07-06T13:59:30;21.20;92.80
6377;DHT22;3221;48.858;10.128;2022-07-06T14:01:58;21.40;91.80
6377;DHT22;3221;48.858;10.128;2022-07-06T14:04:25;21.40;91.90
6377;DHT22;3221;48.858;10.128;2022-07-06T14:06:52;21.30;92.20
6377;DHT22;3221;48.858;10.128;2022-07-06T14:09:19;21.40;92.60
6377;DHT22;3221;48.858;10.128;2022-07-06T14:11:46;21.40;92.70
6377;DHT22;3221;48.858;10.128;2022-07-06T14:14:13;21.30;92.80
6377;DHT22;3221;48.858;10.128;2022-07-06T14:16:40;21.50;92.50
6377;DHT22;3221;48.858;10.128;2022-07-06T14:19:08;21.50;92.60
6377;DHT22;3221;48.858;10.128;2022-07-06T14:21:35;21.60;92.50
6377;DHT22;3221;48.858;10.128;2022-07-06T14:24:03;21.80;92.70
6377;DHT22;3221;48.858;10.128;2022-07-06T14:26:30;21.70;92.50
6377;DHT22;3221;48.858;10.128;2022-07-06T14:28:57;21.80;92.00
6377;DHT22;3221;48.858;10.128;2022-07-06T14:31:24;21.80;92.20
6377;DHT22;3221;48.858;10.128;2022-07-06T14:33:51;21.80;92.20
6377;DHT22;3221;48.858;10.128;2022-07-06T14:36:18;21.70;92.00
6377;DHT22;3221;48.858;10.128;2022-07-06T14:38:45;21.70;92.20
6377;DHT22;3221;48.858;10.128;2022-07-06T14:41:13;21.60;92.00
6377;DHT22;3221;48.858;10.128;2022-07-06T14:43:40;21.70;92.30
6377;DHT22;3221;48.858;10.128;2022-07-06T14:46:07;21.70;92.30
6377;DHT22;3221;48.858;10.128;2022-07-06T14:48:34;21.80;92.30
6377;DHT22;3221;48.858;10.128;2022-07-06T14:51:01;21.70;92.40
6377;DHT22;3221;48.858;10.128;2022-07-06T14:53:28;21.80;92.30
6377;DHT22;3221;48.858;10.128;2022-07-06T14:55:56;21.70;91.90
6377;DHT22;3221;48.858;10.128;2022-07-06T14:58:22;21.80;92.60
6377;DHT22;3221;48.858;10.128;2022-07-06T15:00:50;21.90;92.30
6377;DHT22;3221;48.858;10.128;2022-07-06T15:03:25;21.90;91.80
6377;DHT22;3221;48.858;10.128;2022-07-06T15:05:52;21.90;92.10
6377;DHT22;3221;48.858;10.128;2022-07-06T15:08:20;21.80;91.70
6377;DHT22;3221;48.858;10.128;2022-07-06T15:10:47;21.80;92.10
6377;DHT22;3221;48.858;10.128;2022-07-06T15:13:15;21.80;91.90
6377;DHT22;3221;48.858;10.128;2022-07-06T15:15:42;21.80;92.00
6377;DHT22;3221;48.858;10.128;2022-07-06T15:18:25;21.80;91.70
6377;DHT22;3221;48.858;10.128;2022-07-06T15:20:53;21.80;92.20
6377;DHT22;3221;48.858;10.128;2022-07-06T15:23:20;21.90;92.10
6377;DHT22;3221;48.858;10.128;2022-07-06T15:25:48;21.90;92.30
6377;DHT22;3221;48.858;10.128;2022-07-06T15:28:22;21.90;92.30
6377;DHT22;3221;48.858;10.128;2022-07-06T15:30:51;21.90;91.80
6377;DHT22;3221;48.858;10.128;2022-07-06T15:33:18;22.00;92.10
6377;DHT22;3221;48.858;10.128;2022-07-06T15:35:46;22.10;92.30
6377;DHT22;3221;48.858;10.128;2022-07-06T15:38:14;22.10;91.80
6377;DHT22;3221;48.858;10.128;2022-07-06T15:40:42;22.00;92.10
6377;DHT22;3221;48.858;10.128;2022-07-06T15:43:12;21.90;92.00
6377;DHT22;3221;48.858;10.128;2022-07-06T15:45:39;21.80;92.30
6377;DHT22;3221;48.858;10.128;2022-07-06T15:48:06;21.80;92.10
6377;DHT22;3221;48.858;10.128;2022-07-06T15:50:34;21.90;92.00
6377;DHT22;3221;48.858;10.128;2022-07-06T15:53:03;21.80;92.10
6377;DHT22;3221;48.858;10.128;2022-07-06T15:55:30;21.80;92.00
6377;DHT22;3221;48.858;10.128;2022-07-06T15:57:57;21.90;92.20
6377;DHT22;3221;48.858;10.128;2022-07-06T16:00:24;21.80;92.00
6377;DHT22;3221;48.858;10.128;2022-07-06T16:02:51;21.80;92.10